Startpagina
METAR-TAF:

METAR-TAF

Vliegvelden :

McCarran International Airport

Las Vegas, Nevada, Verenigde Staten

breedte: 36-04-44N, lengte: 115-09-19W, hoogte: 663 m

Actueel weer

Dit bericht is 38 minuten geleden gemaakt, om 04:56 UTC
Wind 3 kt uit het westen
Temperatuur 13°C
Vochtigheid 30%
Druk 1017 hPa
Zicht: 16.1 km
Weinig wolken op 14000 ft
Gebroken wolken op 25000 ft

METAR: KLAS 180456Z 26003KT 10SM FEW140 BKN250 13/M04 A3003 RMK AO2 SLP162 T01281039

Tijdstip: 21:34 (05:34 UTC)

Verwachting

Dit bericht is 2 uur en het 57 minuten geleden gemaakt, om 02:37 UTC
Verwachting geldig van 18 om 03 UTC tot 19 om 06 UTC
Wind 5 kt uit het zuidwesten
Zicht: 10 km
Weinig wolken op 15000 ft
Verspreide wolken op 25000 ft
Van 18 om 1700 UTC
Wind 5 kt uit variabele richting
Zicht: 10 km
Weinig wolken op 25000 ft
Van 19 om 0300 UTC
Wind 5 kt uit het zuidwesten
Zicht: 10 km
Weinig wolken op 25000 ft

TAF: KLAS 180237Z 1803/1906 22005KT P6SM FEW150 SCT250 FM181700 VRB05KT P6SM FEW250 FM190300 22005KT P6SM FEW250

Waarnemingen en weersverwachtingen van meer dan 4000 vliegvelden (METAR en TAF).

De beschikbare stations zijn de gele en rode punten op de kaart.

Ga met uw muis naar het station om de naam te zien.

Klik dan om waarnemingen en weersverwachtingen te zien.

kaart wijzigen: klik op de groene knoppen met een zwart kruis om in te zoomen, op de groene knop met een streepje om uit te zoomen of op de groene pijlen voor aangrenzende kaarten.


METAR-TAF: